Time;durP1;ratioP1;P1;durP2;ratioP2;P2;SDS_P1;SDS_P2;PMS_P1;PMS_P2;Temp;Humidity;BMP_temperature;BMP_pressure;BME280_temperature;BME280_humidity;BME280_pressure;Samples;Min_cycle;Max_cycle;Signal;HPM_P1;HPM_P2
2024/04/12 00:01:50;;;;;;;16.83;7.10;;;;;;;20.75;67.97;100987.66;33581014;26;20466;-77
2024/04/12 00:16:53;;;;;;;16.33;8.40;;;;;;;20.32;71.95;100980.56;33548511;26;19996;-76
2024/04/12 00:32:03;;;;;;;15.45;6.45;;;;;;;20.71;71.67;100974.03;33532833;26;20495;-78
2024/04/12 00:47:17;;;;;;;10.73;6.60;;;;;;;20.59;73.60;100983.28;33522488;26;20085;-77
2024/04/12 01:02:21;;;;;;;12.85;6.10;;;;;;;20.57;71.44;100963.66;33542446;26;20460;-77
2024/04/12 01:17:24;;;;;;;;;;;;;;;20.70;73.03;100950.44;33505168;26;20518;-77
2024/04/12 01:32:26;;;;;;;20.98;9.07;;;;;;;20.20;72.09;100935.44;33516107;26;19932;-76
2024/04/12 01:47:34;;;;;;;16.25;8.30;;;;;;;20.17;76.20;100917.06;33551430;26;20008;-77
2024/04/12 02:02:37;;;;;;;16.30;7.68;;;;;;;19.90;79.11;100912.41;33547468;26;20015;-76
2024/04/12 02:17:40;;;;;;;22.42;8.52;;;;;;;20.04;79.35;100906.25;33564105;26;20007;-77
2024/04/12 02:32:45;;;;;;;16.95;7.03;;;;;;;20.19;79.02;100916.63;33545005;26;20415;-77
2024/04/12 02:47:47;;;;;;;;;;;;;;;19.60;89.95;100924.41;33602656;26;20340;-76
2024/04/12 03:02:53;;;;;;;13.80;7.50;;;;;;;19.16;92.05;100934.91;33563813;26;20265;-76
2024/04/12 03:17:56;;;;;;;14.65;7.75;;;;;;;19.31;93.86;100928.38;33555511;26;20014;-79
2024/04/12 03:33:02;;;;;;;19.98;8.20;;;;;;;19.30;96.95;100940.59;33553370;26;20387;-76
2024/04/12 03:48:13;;;;;;;20.57;9.10;;;;;;;18.77;100.00;100937.28;33540387;26;20015;-77
2024/04/12 04:03:31;;;;;;;25.02;9.55;;;;;;;18.87;100.00;100930.59;33524868;26;20004;-78
2024/04/12 04:18:35;;;;;;;32.55;9.55;;;;;;;19.66;100.00;100925.31;33570663;26;20039;-77
2024/04/12 04:33:38;;;;;;;19.60;9.03;;;;;;;20.59;94.50;100928.09;33543382;26;20014;-78
2024/04/12 04:48:40;;;;;;;21.77;8.40;;;;;;;21.44;84.11;100934.94;33579401;26;20014;-77
2024/04/12 05:03:43;;;;;;;20.02;9.70;;;;;;;22.02;78.95;100939.00;33503681;26;20078;-76
2024/04/12 05:18:48;;;;;;;36.53;8.15;;;;;;;22.22;79.79;100935.56;33558748;26;20000;-78
2024/04/12 05:33:51;;;;;;;20.40;7.78;;;;;;;22.68;78.98;100930.19;33483887;26;20467;-79
2024/04/12 05:48:53;;;;;;;29.60;8.63;;;;;;;23.63;74.36;100925.09;33545282;26;20050;-78
2024/04/12 06:03:56;;;;;;;21.83;7.70;;;;;;;24.04;71.32;100932.03;33538544;26;20000;-78
2024/04/12 06:19:00;;;;;;;14.93;7.77;;;;;;;25.02;66.88;100928.94;33541480;26;20019;-76
2024/04/12 06:34:12;;;;;;;28.35;9.07;;;;;;;26.15;61.48;100928.66;33539113;26;20081;-78
2024/04/12 06:49:15;;;;;;;17.67;7.87;;;;;;;27.07;57.74;100914.78;33479844;26;20437;-79
2024/04/12 07:04:17;;;;;;;21.53;6.90;;;;;;;27.88;54.51;100902.13;33541417;26;20336;-77
2024/04/12 07:19:23;;;;;;;20.52;6.63;;;;;;;28.72;51.86;100895.72;33587449;26;20288;-78
2024/04/12 07:34:25;;;;;;;26.60;11.90;;;;;;;29.59;49.64;100896.38;33568383;26;20039;-76
2024/04/12 07:49:33;;;;;;;22.83;7.95;;;;;;;29.92;47.96;100893.03;33595751;26;20004;-80
2024/04/12 08:04:38;;;;;;;15.65;6.13;;;;;;;30.23;47.64;100880.31;33520459;26;20016;-76
2024/04/12 08:19:45;;;;;;;18.85;6.28;;;;;;;31.06;45.84;100872.28;33542559;26;20080;-83
2024/04/12 08:34:49;;;;;;;18.58;7.03;;;;;;;30.66;46.61;100876.47;33523985;26;20007;-83
2024/04/12 08:50:06;;;;;;;26.67;5.97;;;;;;;31.47;44.33;100851.97;33617732;26;20014;-86
2024/04/12 09:05:08;;;;;;;26.58;5.10;;;;;;;31.98;43.79;100837.44;33503781;26;20011;-79
2024/04/12 09:20:29;;;;;;;12.50;5.05;;;;;;;32.62;42.08;100825.47;33564346;26;20009;-81
2024/04/12 09:35:36;;;;;;;40.97;5.93;;;;;;;32.76;40.11;100824.06;33579159;26;20416;-85
2024/04/12 10:52:08;;;;;;;15.05;4.63;;;;;;;32.27;39.36;100756.00;33601913;26;20007;-84
2024/04/12 11:07:14;;;;;;;9.65;4.28;;;;;;;32.77;38.54;100729.22;33634812;26;20003;-82
2024/04/12 11:37:49;;;;;;;23.35;4.38;;;;;;;32.47;37.95;100691.28;33582093;26;20352;-91
2024/04/12 11:52:54;;;;;;;12.77;3.63;;;;;;;31.94;37.07;100688.25;33498499;26;20062;-86
2024/04/12 12:07:59;;;;;;;10.27;3.53;;;;;;;30.89;38.25;100669.34;33651896;26;20014;-89
2024/04/12 12:23:02;;;;;;;13.18;4.30;;;;;;;30.39;37.97;100668.44;33619861;26;20072;-78
2024/04/12 12:38:04;;;;;;;12.40;3.55;;;;;;;29.67;38.26;100659.47;33518138;26;20008;-83
2024/04/12 12:53:09;;;;;;;10.52;3.13;;;;;;;29.29;38.53;100648.44;33512452;26;20058;-83
2024/04/12 13:08:18;;;;;;;8.73;4.25;;;;;;;28.82;38.38;100643.41;33544659;26;20000;-86
2024/04/12 13:23:25;;;;;;;7.65;2.97;;;;;;;28.40;38.02;100633.13;33533701;26;20004;-74
2024/04/12 13:38:30;;;;;;;7.15;3.15;;;;;;;28.07;37.42;100623.16;33500310;26;20018;-73
2024/04/12 13:53:35;;;;;;;13.90;4.47;;;;;;;27.89;36.82;100627.44;33491726;26;20056;-74
2024/04/12 14:08:39;;;;;;;5.18;2.70;;;;;;;27.69;36.82;100630.72;33547234;26;20358;-75
2024/04/12 14:23:43;;;;;;;12.80;3.00;;;;;;;27.61;36.00;100607.50;33558592;26;20019;-74
2024/04/12 14:38:47;;;;;;;5.53;2.10;;;;;;;27.25;35.09;100609.63;33506862;26;20004;-76
2024/04/12 14:53:50;;;;;;;4.95;2.70;;;;;;;26.33;35.72;100606.56;33565972;26;20019;-75
2024/04/12 15:55:16;;;;;;;201.25;42.88;;;;;;;25.15;35.87;100603.44;33585936;26;20425;-78
2024/04/12 16:25:39;;;;;;;12.18;2.47;;;;;;;24.21;36.46;100617.94;33655881;26;20021;-76
2024/04/12 16:40:55;;;;;;;8.50;2.80;;;;;;;23.57;36.94;100647.19;33506029;26;20022;-78
2024/04/12 16:55:58;;;;;;;6.00;1.85;;;;;;;23.17;36.53;100657.19;33577917;26;20077;-79
2024/04/12 17:11:02;;;;;;;5.03;2.50;;;;;;;22.85;36.50;100658.44;33481208;26;20087;-80
2024/04/12 17:26:07;;;;;;;4.95;1.73;;;;;;;22.57;36.62;100667.22;33604077;26;20000;-80
2024/04/12 17:41:09;;;;;;;5.75;1.40;;;;;;;22.15;36.76;100675.28;33529929;26;20004;-79
2024/04/12 17:56:13;;;;;;;4.28;2.30;;;;;;;21.88;36.40;100679.94;33583357;26;20069;-79
2024/04/12 18:11:15;;;;;;;3.92;1.60;;;;;;;21.60;36.63;100681.56;33504408;26;20016;-80
2024/04/12 18:26:18;;;;;;;3.90;1.77;;;;;;;21.39;37.05;100673.22;33657192;26;19999;-77
2024/04/12 18:56:41;;;;;;;4.75;1.77;;;;;;;20.83;37.79;100692.81;33512030;26;20077;-77
2024/04/12 19:11:45;;;;;;;3.78;2.13;;;;;;;20.55;38.29;100693.06;33487543;26;20026;-78
2024/04/12 19:26:52;;;;;;;4.70;2.87;;;;;;;20.26;39.46;100690.22;33546854;26;20004;-77
2024/04/12 19:41:55;;;;;;;6.75;2.40;;;;;;;19.94;39.30;100681.56;33497076;26;20413;-76
2024/04/12 19:56:59;;;;;;;7.03;2.67;;;;;;;19.70;39.91;100680.78;33529607;26;20023;-75
2024/04/12 20:12:01;;;;;;;6.80;2.55;;;;;;;19.37;40.74;100683.47;33497149;26;20003;-75
2024/04/12 20:27:09;;;;;;;9.32;2.67;;;;;;;19.21;41.02;100695.63;33505560;26;20034;-76
2024/04/12 20:42:11;;;;;;;6.22;3.40;;;;;;;18.87;41.13;100696.03;33551312;26;20004;-75
2024/04/12 20:57:17;;;;;;;6.68;2.30;;;;;;;18.62;41.86;100691.63;33557112;26;20340;-73
2024/04/12 21:12:20;;;;;;;8.07;2.50;;;;;;;18.34;42.62;100682.56;33501966;26;20010;-75
2024/04/12 21:27:23;;;;;;;6.97;2.10;;;;;;;18.03;43.06;100688.19;33517618;26;20012;-74
2024/04/12 21:42:27;;;;;;;7.13;2.30;;;;;;;17.90;43.20;100690.31;33493589;26;19996;-76
2024/04/12 21:57:30;;;;;;;7.78;2.83;;;;;;;17.70;42.89;100687.97;33530047;26;20019;-76
2024/04/12 22:12:32;;;;;;;8.03;3.40;;;;;;;17.68;42.97;100688.41;33546937;26;20471;-76
2024/04/12 22:27:35;;;;;;;9.70;3.87;;;;;;;17.58;43.10;100678.56;33570693;26;20003;-77
2024/04/12 22:42:39;;;;;;;14.77;3.73;;;;;;;17.41;43.32;100673.78;33496072;26;20016;-78
2024/04/12 22:57:43;;;;;;;9.47;3.70;;;;;;;17.23;43.63;100667.00;33557137;26;20076;-77
2024/04/12 23:12:46;;;;;;;11.03;4.37;;;;;;;17.10;43.88;100655.34;33517358;26;19999;-77
2024/04/12 23:27:48;;;;;;;7.60;3.80;;;;;;;17.08;44.13;100663.25;33516166;26;20106;-77
2024/04/12 23:42:50;;;;;;;9.50;3.93;;;;;;;16.55;45.12;100665.94;33534936;26;20092;-74
2024/04/12 23:57:53;;;;;;;16.03;4.50;;;;;;;16.55;45.39;100663.19;33530459;26;20332;-76
